Time,TemperatureF,DewpointF,PressureIn,WindDirection,WindDirectionDegrees,WindSpeedMPH,WindSpeedGustMPH,Humidity,HourlyPrecipIn,Conditions,Clouds,dailyrainin,SoftwareType,DateUTC
2013-05-14 00:02:00,55.0,36.0,30.12,South,181,0.0,3.0,48,0.00,,,0.00,,2013-05-14 04:02:00,
2013-05-14 00:13:00,55.0,36.0,30.12,South,181,0.0,3.0,48,0.00,,,0.00,,2013-05-14 04:13:00,
2013-05-14 00:22:00,56.0,36.0,30.12,South,181,0.0,2.0,47,0.00,,,0.00,,2013-05-14 04:22:00,
2013-05-14 00:32:00,56.0,37.0,30.11,South,181,0.0,1.0,48,0.00,,,0.00,,2013-05-14 04:32:00,
2013-05-14 00:43:00,56.0,37.0,30.10,South,169,0.0,5.0,48,0.00,,,0.00,,2013-05-14 04:43:00,
2013-05-14 00:53:00,56.0,37.0,30.10,South,169,0.0,5.0,48,0.00,,,0.00,,2013-05-14 04:53:00,
2013-05-14 01:01:00,55.0,36.0,30.11,SSE,165,0.0,4.0,49,0.00,,,0.00,,2013-05-14 05:01:00,
2013-05-14 01:12:00,55.0,37.0,30.11,SSE,165,0.0,1.0,50,0.00,,,0.00,,2013-05-14 05:12:00,
2013-05-14 01:21:00,55.0,37.0,30.11,SSE,165,0.0,1.0,50,0.00,,,0.00,,2013-05-14 05:21:00,
2013-05-14 01:32:00,55.0,37.0,30.11,SSE,165,0.0,1.0,51,0.00,,,0.00,,2013-05-14 05:32:00,
2013-05-14 01:42:00,55.0,38.0,30.11,SSE,165,0.0,3.0,52,0.00,,,0.00,,2013-05-14 05:42:00,
2013-05-14 01:52:00,55.0,38.0,30.11,SSE,165,0.0,3.0,52,0.00,,,0.00,,2013-05-14 05:52:00,
2013-05-14 02:01:00,54.0,37.0,30.11,SSE,165,0.0,2.0,52,0.00,,,0.00,,2013-05-14 06:01:00,
2013-05-14 02:12:00,54.0,37.0,30.11,SSE,165,0.0,2.0,52,0.00,,,0.00,,2013-05-14 06:12:00,
2013-05-14 02:22:00,54.0,37.0,30.10,SSE,165,0.0,2.0,53,0.00,,,0.00,,2013-05-14 06:22:00,
2013-05-14 02:32:00,53.0,37.0,30.10,SSE,165,0.0,2.0,54,0.00,,,0.00,,2013-05-14 06:32:00,
2013-05-14 02:42:00,53.0,37.0,30.09,SSE,165,0.0,2.0,55,0.00,,,0.00,,2013-05-14 06:42:00,
2013-05-14 02:52:00,53.0,37.0,30.09,SSE,165,0.0,2.0,55,0.00,,,0.00,,2013-05-14 06:52:00,
2013-05-14 03:01:00,53.0,37.0,30.09,SSE,165,0.0,3.0,55,0.00,,,0.00,,2013-05-14 07:01:00,
2013-05-14 03:11:00,53.0,37.0,30.09,SSE,165,0.0,3.0,55,0.00,,,0.00,,2013-05-14 07:11:00,
2013-05-14 03:21:00,53.0,37.0,30.08,SSE,165,0.0,2.0,55,0.00,,,0.00,,2013-05-14 07:21:00,
2013-05-14 03:31:00,53.0,37.0,30.08,SSE,165,0.0,3.0,54,0.00,,,0.00,,2013-05-14 07:31:00,
2013-05-14 03:41:00,53.0,37.0,30.07,SSE,165,0.0,4.0,55,0.00,,,0.00,,2013-05-14 07:41:00,
2013-05-14 03:52:00,53.0,37.0,30.07,SSE,165,0.0,4.0,55,0.00,,,0.00,,2013-05-14 07:52:00,
2013-05-14 04:02:00,53.0,37.0,30.07,SSE,165,0.0,4.0,54,0.00,,,0.00,,2013-05-14 08:02:00,
2013-05-14 04:11:00,53.0,36.0,30.06,SSE,165,0.0,3.0,53,0.00,,,0.00,,2013-05-14 08:11:00,
2013-05-14 04:21:00,53.0,36.0,30.06,SSE,165,0.0,3.0,53,0.00,,,0.00,,2013-05-14 08:21:00,
2013-05-14 04:31:00,53.0,37.0,30.06,SSE,165,0.0,3.0,54,0.00,,,0.00,,2013-05-14 08:31:00,
2013-05-14 04:41:00,53.0,37.0,30.06,SSE,161,0.0,5.0,54,0.00,,,0.00,,2013-05-14 08:41:00,
2013-05-14 04:52:00,53.0,37.0,30.06,SSE,161,0.0,5.0,54,0.00,,,0.00,,2013-05-14 08:52:00,
2013-05-14 05:01:00,52.0,37.0,30.05,SSE,159,1.0,5.0,56,0.00,,,0.00,,2013-05-14 09:01:00,
2013-05-14 05:11:00,52.0,37.0,30.04,SSE,161,1.0,4.0,57,0.00,,,0.00,,2013-05-14 09:11:00,
2013-05-14 05:21:00,52.0,37.0,30.04,SSE,161,1.0,4.0,57,0.00,,,0.00,,2013-05-14 09:21:00,
2013-05-14 05:32:00,51.0,37.0,30.04,SSE,164,0.0,4.0,59,0.00,,,0.00,,2013-05-14 09:32:00,
2013-05-14 05:44:00,51.0,37.0,30.03,SSE,161,1.0,5.0,59,0.00,,,0.00,,2013-05-14 09:44:00,
2013-05-14 05:54:00,51.0,37.0,30.03,SSE,161,1.0,5.0,59,0.00,,,0.00,,2013-05-14 09:54:00,
2013-05-14 06:04:00,51.0,37.0,30.03,SSE,156,1.0,5.0,59,0.00,,,0.00,,2013-05-14 10:04:00,
2013-05-14 06:14:00,51.0,37.0,30.03,SSE,155,1.0,7.0,59,0.00,,,0.00,,2013-05-14 10:14:00,
2013-05-14 06:25:00,51.0,37.0,30.03,SSE,155,1.0,7.0,59,0.00,,,0.00,,2013-05-14 10:25:00,
2013-05-14 06:33:00,51.0,37.0,30.03,SSE,157,1.0,6.0,59,0.00,,,0.00,,2013-05-14 10:33:00,
2013-05-14 06:42:00,51.0,37.0,30.03,SSE,153,1.0,7.0,58,0.00,,,0.00,,2013-05-14 10:42:00,
2013-05-14 06:52:00,51.0,37.0,30.03,SSE,153,1.0,7.0,58,0.00,,,0.00,,2013-05-14 10:52:00,
2013-05-14 07:02:00,53.0,37.0,30.03,SSE,158,1.0,5.0,55,0.00,,,0.00,,2013-05-14 11:02:00,
2013-05-14 07:11:00,53.0,37.0,30.03,SSE,158,1.0,5.0,55,0.00,,,0.00,,2013-05-14 11:11:00,
2013-05-14 07:21:00,54.0,38.0,30.03,SSE,156,2.0,7.0,55,0.00,,,0.00,,2013-05-14 11:21:00,
2013-05-14 07:32:00,52.0,38.0,30.03,SSE,155,2.0,8.0,59,0.00,,,0.00,,2013-05-14 11:32:00,
2013-05-14 07:43:00,52.0,38.0,30.02,SSE,148,1.0,8.0,59,0.00,,,0.00,,2013-05-14 11:43:00,
2013-05-14 07:53:00,52.0,38.0,30.02,SSE,148,1.0,8.0,59,0.00,,,0.00,,2013-05-14 11:53:00,
2013-05-14 08:02:00,55.0,40.0,30.03,SSE,153,1.0,6.0,56,0.00,,,0.00,,2013-05-14 12:02:00,
2013-05-14 08:12:00,55.0,40.0,30.03,SSE,153,1.0,6.0,56,0.00,,,0.00,,2013-05-14 12:12:00,
2013-05-14 08:21:00,55.0,40.0,30.02,SSE,154,1.0,6.0,56,0.00,,,0.00,,2013-05-14 12:21:00,
2013-05-14 08:32:00,55.0,40.0,30.02,SSE,158,2.0,11.0,56,0.00,,,0.00,,2013-05-14 12:32:00,
2013-05-14 08:42:00,56.0,40.0,30.02,SSE,152,3.0,9.0,55,0.00,,,0.00,,2013-05-14 12:42:00,
2013-05-14 08:52:00,56.0,40.0,30.02,SSE,152,3.0,9.0,55,0.00,,,0.00,,2013-05-14 12:52:00,
2013-05-14 09:01:00,58.0,41.0,30.01,SSE,166,4.0,10.0,53,0.00,,,0.00,,2013-05-14 13:01:00,
2013-05-14 09:11:00,59.0,42.0,30.00,SSE,161,2.0,8.0,53,0.00,,,0.00,,2013-05-14 13:11:00,
2013-05-14 09:22:00,59.0,42.0,30.00,SSE,161,2.0,8.0,53,0.00,,,0.00,,2013-05-14 13:22:00,
2013-05-14 09:32:00,60.0,43.0,30.00,SSE,157,3.0,10.0,53,0.00,,,0.00,,2013-05-14 13:32:00,
2013-05-14 09:41:00,60.0,43.0,30.00,SSE,157,3.0,10.0,53,0.00,,,0.00,,2013-05-14 13:41:00,
2013-05-14 09:52:00,60.0,43.0,30.00,SSE,157,3.0,10.0,53,0.00,,,0.00,,2013-05-14 13:52:00,
2013-05-14 10:01:00,63.0,46.0,29.98,SSE,165,2.0,9.0,53,0.00,,,0.00,,2013-05-14 14:01:00,
2013-05-14 10:11:00,64.0,47.0,29.98,SSE,153,2.0,9.0,55,0.00,,,0.00,,2013-05-14 14:11:00,
2013-05-14 10:22:00,64.0,47.0,29.98,SSE,153,2.0,9.0,55,0.00,,,0.00,,2013-05-14 14:22:00,
2013-05-14 10:31:00,64.0,48.0,29.97,South,180,2.0,12.0,56,0.00,,,0.00,,2013-05-14 14:31:00,
2013-05-14 10:41:00,64.0,47.0,29.97,SW,219,3.0,8.0,55,0.00,,,0.00,,2013-05-14 14:41:00,
2013-05-14 10:52:00,64.0,47.0,29.97,SW,219,3.0,8.0,55,0.00,,,0.00,,2013-05-14 14:52:00,
2013-05-14 11:01:00,66.0,50.0,29.96,South,187,2.0,8.0,56,0.00,,,0.00,,2013-05-14 15:01:00,
2013-05-14 11:12:00,67.0,50.0,29.95,SSW,198,2.0,7.0,54,0.00,,,0.00,,2013-05-14 15:12:00,
2013-05-14 11:21:00,67.0,50.0,29.95,SSW,198,2.0,7.0,54,0.00,,,0.00,,2013-05-14 15:21:00,
2013-05-14 11:32:00,68.0,51.0,29.95,South,183,1.0,10.0,55,0.00,,,0.00,,2013-05-14 15:32:00,
2013-05-14 11:43:00,69.0,52.0,29.94,South,184,2.0,7.0,54,0.00,,,0.00,,2013-05-14 15:43:00,
2013-05-14 11:53:00,69.0,52.0,29.94,South,184,2.0,7.0,54,0.00,,,0.00,,2013-05-14 15:53:00,
2013-05-14 12:02:00,70.0,52.0,29.93,SSE,147,1.0,7.0,53,0.00,,,0.00,,2013-05-14 16:02:00,
2013-05-14 12:12:00,72.0,54.0,29.93,South,183,2.0,8.0,54,0.00,,,0.00,,2013-05-14 16:12:00,
2013-05-14 12:23:00,72.0,54.0,29.93,South,183,2.0,8.0,54,0.00,,,0.00,,2013-05-14 16:23:00,
2013-05-14 12:33:00,73.0,54.0,29.92,South,173,2.0,10.0,51,0.00,,,0.00,,2013-05-14 16:33:00,
2013-05-14 12:43:00,73.0,54.0,29.92,South,173,2.0,10.0,51,0.00,,,0.00,,2013-05-14 16:43:00,
2013-05-14 12:54:00,73.0,54.0,29.92,SSW,204,1.0,6.0,52,0.00,,,0.00,,2013-05-14 16:54:00,
2013-05-14 13:03:00,75.0,56.0,29.92,SSE,161,1.0,9.0,52,0.00,,,0.00,,2013-05-14 17:03:00,
2013-05-14 13:13:00,76.0,57.0,29.91,SSW,194,2.0,11.0,51,0.00,,,0.00,,2013-05-14 17:13:00,
2013-05-14 13:24:00,76.0,57.0,29.91,SSW,194,2.0,11.0,51,0.00,,,0.00,,2013-05-14 17:24:00,
2013-05-14 13:32:00,76.0,57.0,29.90,SW,215,3.0,10.0,52,0.00,,,0.00,,2013-05-14 17:32:00,
2013-05-14 13:43:00,76.0,57.0,29.90,SW,215,3.0,10.0,52,0.00,,,0.00,,2013-05-14 17:43:00,
2013-05-14 13:52:00,77.0,57.0,29.89,SW,222,3.0,9.0,51,0.00,,,0.00,,2013-05-14 17:52:00,
2013-05-14 14:02:00,78.0,59.0,29.88,WSW,246,1.0,6.0,53,0.00,,,0.00,,2013-05-14 18:02:00,
2013-05-14 14:12:00,78.0,59.0,29.88,WSW,246,1.0,6.0,53,0.00,,,0.00,,2013-05-14 18:12:00,
2013-05-14 14:22:00,78.0,59.0,29.87,SSW,210,2.0,10.0,53,0.00,,,0.00,,2013-05-14 18:22:00,
2013-05-14 14:32:00,78.0,58.0,29.87,SW,231,2.0,8.0,51,0.00,,,0.00,,2013-05-14 18:32:00,
2013-05-14 14:42:00,78.0,58.0,29.87,SW,231,2.0,8.0,51,0.00,,,0.00,,2013-05-14 18:42:00,
2013-05-14 14:52:00,80.0,60.0,29.86,SSW,192,3.0,10.0,50,0.00,,,0.00,,2013-05-14 18:52:00,
2013-05-14 15:01:00,80.0,60.0,29.85,SSW,199,2.0,10.0,51,0.00,,,0.00,,2013-05-14 19:01:00,
2013-05-14 15:11:00,80.0,60.0,29.84,SW,215,3.0,11.0,50,0.00,,,0.00,,2013-05-14 19:11:00,
2013-05-14 15:22:00,80.0,60.0,29.84,SW,215,3.0,11.0,50,0.00,,,0.00,,2013-05-14 19:22:00,
2013-05-14 15:31:00,82.0,61.0,29.84,South,176,2.0,9.0,49,0.00,,,0.00,,2013-05-14 19:31:00,
2013-05-14 15:42:00,82.0,60.0,29.83,SSW,209,3.0,9.0,47,0.00,,,0.00,,2013-05-14 19:42:00,
2013-05-14 15:52:00,82.0,60.0,29.83,SSW,209,3.0,9.0,47,0.00,,,0.00,,2013-05-14 19:52:00,
2013-05-14 16:02:00,82.0,61.0,29.83,SW,228,2.0,8.0,49,0.00,,,0.00,,2013-05-14 20:02:00,
2013-05-14 16:11:00,81.0,61.0,29.83,SW,214,3.0,13.0,50,0.00,,,0.00,,2013-05-14 20:11:00,
2013-05-14 16:23:00,81.0,61.0,29.83,SW,214,3.0,13.0,50,0.00,,,0.00,,2013-05-14 20:23:00,
2013-05-14 16:32:00,81.0,61.0,29.82,SW,236,3.0,14.0,51,0.00,,,0.00,,2013-05-14 20:32:00,
2013-05-14 16:44:00,81.0,61.0,29.82,SSW,211,2.0,8.0,51,0.00,,,0.00,,2013-05-14 20:44:00,
2013-05-14 16:52:00,81.0,61.0,29.82,SSW,211,2.0,8.0,51,0.00,,,0.00,,2013-05-14 20:52:00,
2013-05-14 17:03:00,82.0,61.0,29.82,SSW,204,3.0,12.0,49,0.00,,,0.00,,2013-05-14 21:03:00,
2013-05-14 17:12:00,82.0,62.0,29.83,WSW,250,3.0,10.0,51,0.00,,,0.00,,2013-05-14 21:12:00,
2013-05-14 17:23:00,82.0,62.0,29.83,WSW,250,3.0,10.0,51,0.00,,,0.00,,2013-05-14 21:23:00,
2013-05-14 17:33:00,82.0,63.0,29.83,SW,230,1.0,8.0,53,0.00,,,0.00,,2013-05-14 21:33:00,
2013-05-14 17:42:00,81.0,62.0,29.83,SW,226,3.0,11.0,52,0.00,,,0.00,,2013-05-14 21:42:00,
2013-05-14 17:53:00,81.0,62.0,29.83,SW,226,3.0,11.0,52,0.00,,,0.00,,2013-05-14 21:53:00,
2013-05-14 18:03:00,81.0,62.0,29.83,SW,229,2.0,9.0,52,0.00,,,0.00,,2013-05-14 22:03:00,
2013-05-14 18:13:00,81.0,62.0,29.82,SW,233,2.0,11.0,53,0.00,,,0.00,,2013-05-14 22:13:00,
2013-05-14 18:24:00,81.0,62.0,29.82,SW,233,2.0,11.0,53,0.00,,,0.00,,2013-05-14 22:24:00,
2013-05-14 18:34:00,81.0,63.0,29.83,SW,226,1.0,7.0,54,0.00,,,0.00,,2013-05-14 22:34:00,
2013-05-14 18:45:00,81.0,62.0,29.82,WSW,245,2.0,8.0,52,0.00,,,0.00,,2013-05-14 22:45:00,
2013-05-14 18:54:00,81.0,62.0,29.82,WSW,245,2.0,8.0,52,0.00,,,0.00,,2013-05-14 22:54:00,
2013-05-14 19:03:00,81.0,62.0,29.82,SW,233,3.0,9.0,53,0.00,,,0.00,,2013-05-14 23:03:00,
2013-05-14 19:12:00,80.0,62.0,29.82,SW,228,1.0,7.0,54,0.00,,,0.00,,2013-05-14 23:12:00,
2013-05-14 19:21:00,80.0,62.0,29.82,SW,228,1.0,7.0,54,0.00,,,0.00,,2013-05-14 23:21:00,
2013-05-14 19:31:00,80.0,62.0,29.82,SW,219,1.0,8.0,54,0.00,,,0.00,,2013-05-14 23:31:00,
2013-05-14 19:44:00,80.0,62.0,29.82,SW,219,1.0,8.0,54,0.00,,,0.00,,2013-05-14 23:44:00,
2013-05-14 19:52:00,80.0,62.0,29.82,SSW,199,0.0,5.0,55,0.00,,,0.00,,2013-05-14 23:52:00,
2013-05-14 20:02:00,80.0,63.0,29.81,SW,232,1.0,7.0,56,0.00,,,0.00,,2013-05-15 00:02:00,
2013-05-14 20:11:00,80.0,63.0,29.81,SW,232,1.0,7.0,56,0.00,,,0.00,,2013-05-15 00:11:00,
2013-05-14 20:21:00,79.0,62.0,29.81,SW,228,0.0,4.0,57,0.00,,,0.00,,2013-05-15 00:21:00,
2013-05-14 20:32:00,78.0,62.0,29.81,SW,225,1.0,7.0,57,0.00,,,0.00,,2013-05-15 00:32:00,
2013-05-14 20:41:00,78.0,62.0,29.81,SW,231,0.0,4.0,58,0.00,,,0.00,,2013-05-15 00:41:00,
2013-05-14 20:52:00,78.0,62.0,29.81,SW,231,0.0,4.0,58,0.00,,,0.00,,2013-05-15 00:52:00,
2013-05-14 21:01:00,77.0,62.0,29.82,SW,224,0.0,3.0,59,0.00,,,0.00,,2013-05-15 01:01:00,
2013-05-14 21:11:00,78.0,62.0,29.82,SSW,209,0.0,3.0,59,0.00,,,0.00,,2013-05-15 01:11:00,
2013-05-14 21:21:00,78.0,62.0,29.82,SSW,209,0.0,3.0,59,0.00,,,0.00,,2013-05-15 01:21:00,
2013-05-14 21:31:00,76.0,62.0,29.82,SSW,209,0.0,3.0,62,0.00,,,0.00,,2013-05-15 01:31:00,
2013-05-14 21:42:00,75.0,62.0,29.82,South,189,0.0,3.0,63,0.00,,,0.00,,2013-05-15 01:42:00,
2013-05-14 21:52:00,75.0,62.0,29.82,South,189,0.0,3.0,63,0.00,,,0.00,,2013-05-15 01:52:00,
2013-05-14 22:01:00,75.0,62.0,29.82,SSW,202,0.0,2.0,64,0.00,,,0.00,,2013-05-15 02:01:00,
2013-05-14 22:11:00,74.0,61.0,29.82,SW,220,1.0,6.0,64,0.00,,,0.00,,2013-05-15 02:11:00,
2013-05-14 22:21:00,74.0,61.0,29.82,SW,220,1.0,6.0,64,0.00,,,0.00,,2013-05-15 02:21:00,
2013-05-14 22:31:00,74.0,61.0,29.83,SSW,209,0.0,3.0,64,0.00,,,0.00,,2013-05-15 02:31:00,
2013-05-14 22:42:00,74.0,61.0,29.83,SW,217,0.0,3.0,65,0.00,,,0.00,,2013-05-15 02:42:00,
2013-05-14 22:52:00,74.0,61.0,29.83,SW,217,0.0,3.0,65,0.00,,,0.00,,2013-05-15 02:52:00,
2013-05-14 23:01:00,73.0,61.0,29.83,South,169,0.0,3.0,65,0.00,,,0.00,,2013-05-15 03:01:00,
2013-05-14 23:12:00,73.0,61.0,29.83,South,169,0.0,3.0,65,0.00,,,0.00,,2013-05-15 03:12:00,
2013-05-14 23:22:00,73.0,61.0,29.83,South,169,0.0,4.0,66,0.00,,,0.00,,2013-05-15 03:22:00,
2013-05-14 23:33:00,73.0,61.0,29.83,South,178,0.0,4.0,66,0.00,,,0.00,,2013-05-15 03:33:00,
2013-05-14 23:44:00,73.0,61.0,29.83,SSW,204,1.0,5.0,66,0.00,,,0.00,,2013-05-15 03:44:00,
2013-05-14 23:54:00,73.0,61.0,29.83,SSW,204,1.0,5.0,66,0.00,,,0.00,,2013-05-15 03:54:00,